createdAt,value
2023-02-19T00:00:06.250Z,18.30
2023-02-19T00:02:32.783Z,18.30
2023-02-19T00:04:59.601Z,18.40
2023-02-19T00:07:26.190Z,18.40
2023-02-19T00:09:52.729Z,18.40
2023-02-19T00:12:19.255Z,18.30
2023-02-19T00:14:45.870Z,18.30
2023-02-19T00:17:12.416Z,18.50
2023-02-19T00:19:39.050Z,18.30
2023-02-19T00:22:05.581Z,18.30
2023-02-19T00:24:32.143Z,18.30
2023-02-19T00:26:58.657Z,18.30
2023-02-19T00:29:25.227Z,18.30
2023-02-19T00:31:51.929Z,18.30
2023-02-19T00:34:18.629Z,18.30
2023-02-19T00:36:45.231Z,18.30
2023-02-19T00:39:15.185Z,18.40
2023-02-19T00:41:41.872Z,18.30
2023-02-19T00:44:10.113Z,18.30
2023-02-19T00:46:38.320Z,18.40
2023-02-19T00:49:05.880Z,18.30
2023-02-19T00:51:34.063Z,18.40
2023-02-19T00:54:00.708Z,18.30
2023-02-19T00:56:27.264Z,18.40
2023-02-19T00:58:54.179Z,18.30
2023-02-19T01:01:20.829Z,18.30
2023-02-19T01:03:47.510Z,18.30
2023-02-19T01:06:15.455Z,18.30
2023-02-19T01:08:42.257Z,18.60
2023-02-19T01:11:09.571Z,18.30
2023-02-19T01:13:37.300Z,18.30
2023-02-19T01:16:03.852Z,18.20
2023-02-19T01:18:30.809Z,18.30
2023-02-19T01:20:57.321Z,18.30
2023-02-19T01:23:23.953Z,18.40
2023-02-19T01:25:50.528Z,18.40
2023-02-19T01:28:17.087Z,18.30
2023-02-19T01:30:43.646Z,18.30
2023-02-19T01:33:10.173Z,18.30
2023-02-19T01:35:39.905Z,18.30
2023-02-19T01:38:09.226Z,18.30
2023-02-19T01:40:35.793Z,18.30
2023-02-19T01:43:03.621Z,18.30
2023-02-19T01:45:30.240Z,18.30
2023-02-19T01:48:04.018Z,18.30
2023-02-19T01:50:32.543Z,18.30
2023-02-19T01:53:00.141Z,18.50
2023-02-19T01:55:26.702Z,18.30
2023-02-19T01:57:54.687Z,18.20
2023-02-19T02:00:21.342Z,18.30
2023-02-19T02:02:50.349Z,18.30
2023-02-19T02:05:24.823Z,18.30
2023-02-19T02:08:10.505Z,18.30
2023-02-19T02:10:37.065Z,18.30
2023-02-19T02:13:03.770Z,18.30
2023-02-19T02:15:36.422Z,18.20
2023-02-19T02:18:08.445Z,18.20
2023-02-19T02:20:58.431Z,18.10
2023-02-19T02:23:33.528Z,18.20
2023-02-19T02:26:08.269Z,18.20
2023-02-19T02:28:44.146Z,18.20
2023-02-19T02:31:16.946Z,18.30
2023-02-19T02:33:53.364Z,18.20
2023-02-19T02:36:21.966Z,18.20
2023-02-19T02:38:49.234Z,18.20
2023-02-19T02:41:16.093Z,18.20
2023-02-19T02:43:42.649Z,18.30
2023-02-19T02:46:11.127Z,18.30
2023-02-19T02:48:38.310Z,18.20
2023-02-19T02:51:20.085Z,18.20
2023-02-19T02:54:05.361Z,18.20
2023-02-19T02:56:32.183Z,18.20
2023-02-19T02:59:00.795Z,18.00
2023-02-19T03:01:48.237Z,18.30
2023-02-19T03:04:19.832Z,18.30
2023-02-19T03:06:47.571Z,18.30
2023-02-19T03:09:18.235Z,18.30
2023-02-19T03:12:05.907Z,18.30
2023-02-19T03:15:03.443Z,18.40
2023-02-19T03:17:52.111Z,18.30
2023-02-19T03:20:20.990Z,18.20
2023-02-19T03:22:48.902Z,18.20
2023-02-19T03:25:38.600Z,18.20
2023-02-19T03:28:06.801Z,18.20
2023-02-19T03:30:34.851Z,18.30
2023-02-19T03:33:07.976Z,18.50
2023-02-19T03:35:40.637Z,18.60
2023-02-19T03:38:18.617Z,18.60
2023-02-19T03:40:56.253Z,18.60
2023-02-19T03:43:27.264Z,18.70
2023-02-19T03:46:02.745Z,18.60
2023-02-19T03:48:32.221Z,18.80
2023-02-19T03:51:05.169Z,18.70
2023-02-19T03:53:41.316Z,18.60
2023-02-19T03:56:07.953Z,18.70
2023-02-19T03:58:44.481Z,18.60
2023-02-19T04:01:17.688Z,18.60
2023-02-19T04:03:51.904Z,18.60
2023-02-19T04:06:22.105Z,18.50
2023-02-19T04:08:50.606Z,18.50
2023-02-19T04:11:18.651Z,18.50
2023-02-19T04:13:47.513Z,18.50
2023-02-19T04:16:20.545Z,18.60
2023-02-19T04:18:49.531Z,18.50
2023-02-19T04:21:16.640Z,18.80
2023-02-19T04:23:44.392Z,18.70
2023-02-19T04:26:12.197Z,18.40
2023-02-19T04:28:39.243Z,18.50
2023-02-19T04:31:05.967Z,18.40
2023-02-19T04:33:32.594Z,18.40
2023-02-19T04:35:59.147Z,18.40
2023-02-19T04:38:25.732Z,18.40
2023-02-19T04:40:52.330Z,18.40
2023-02-19T04:43:19.071Z,18.50
2023-02-19T04:45:45.642Z,18.40
2023-02-19T04:48:12.220Z,18.70
2023-02-19T04:50:39.651Z,18.30
2023-02-19T04:53:06.536Z,18.40
2023-02-19T04:55:36.340Z,18.40
2023-02-19T04:58:02.889Z,18.30
2023-02-19T05:00:29.478Z,18.40
2023-02-19T05:02:56.093Z,18.50
2023-02-19T05:05:22.679Z,18.40
2023-02-19T05:07:49.338Z,18.40
2023-02-19T05:10:15.934Z,18.40
2023-02-19T05:12:42.523Z,18.40
2023-02-19T05:15:09.167Z,18.40
2023-02-19T05:17:35.924Z,18.30
2023-02-19T05:20:02.829Z,18.50
2023-02-19T05:22:29.840Z,18.30
2023-02-19T05:24:56.400Z,18.30
2023-02-19T05:27:22.960Z,18.20
2023-02-19T05:29:49.523Z,18.40
2023-02-19T05:32:16.139Z,18.30
2023-02-19T05:34:42.724Z,18.30
2023-02-19T05:37:09.293Z,18.30
2023-02-19T05:39:35.835Z,18.40
2023-02-19T05:42:02.408Z,18.30
2023-02-19T05:44:28.972Z,18.30
2023-02-19T05:46:55.516Z,18.40
2023-02-19T05:49:22.085Z,18.30
2023-02-19T05:51:50.570Z,18.30
2023-02-19T05:54:17.134Z,18.60
2023-02-19T05:56:43.700Z,18.40
2023-02-19T05:59:16.274Z,18.30
2023-02-19T06:01:43.170Z,18.20
2023-02-19T06:04:12.647Z,18.30
2023-02-19T06:06:39.623Z,18.30
2023-02-19T06:09:06.614Z,18.30
2023-02-19T06:11:33.522Z,18.40
2023-02-19T06:14:00.194Z,18.30
2023-02-19T06:16:26.913Z,18.30
2023-02-19T06:18:53.544Z,18.30
2023-02-19T06:21:20.172Z,18.30
2023-02-19T06:23:47.091Z,18.30
2023-02-19T06:26:15.361Z,18.30
2023-02-19T06:28:42.375Z,18.40
2023-02-19T06:31:10.201Z,18.30
2023-02-19T06:33:40.328Z,18.30
2023-02-19T06:36:08.086Z,18.50
2023-02-19T06:38:34.647Z,18.30
2023-02-19T06:41:02.508Z,18.30
2023-02-19T06:43:29.124Z,18.30
2023-02-19T06:45:57.881Z,18.30
2023-02-19T06:48:25.179Z,18.50
2023-02-19T06:50:51.744Z,18.20
2023-02-19T06:53:18.318Z,18.30
2023-02-19T06:55:44.870Z,18.20
2023-02-19T06:58:11.493Z,18.30
2023-02-19T07:00:38.120Z,18.20
2023-02-19T07:03:05.659Z,18.30
2023-02-19T07:05:32.298Z,18.20
2023-02-19T07:07:58.878Z,18.50
2023-02-19T07:10:25.514Z,18.30
2023-02-19T07:12:52.092Z,18.30
2023-02-19T07:15:18.661Z,18.50
2023-02-19T07:17:45.261Z,18.20
2023-02-19T07:20:12.087Z,18.20
2023-02-19T07:22:38.638Z,18.30
2023-02-19T07:25:05.355Z,18.30
2023-02-19T07:27:32.020Z,18.30
2023-02-19T07:29:59.142Z,18.30
2023-02-19T07:32:25.700Z,18.20
2023-02-19T07:34:52.269Z,18.20
2023-02-19T07:37:18.853Z,18.20
2023-02-19T07:39:45.428Z,18.20
2023-02-19T07:42:11.970Z,18.30
2023-02-19T07:44:38.553Z,18.20
2023-02-19T07:47:05.141Z,18.30
2023-02-19T07:49:32.938Z,18.20
2023-02-19T07:51:59.525Z,18.20
2023-02-19T07:54:26.106Z,18.20
2023-02-19T07:56:52.659Z,18.20
2023-02-19T07:59:21.488Z,18.20
2023-02-19T08:02:06.476Z,18.20
2023-02-19T08:04:33.255Z,18.30
2023-02-19T08:06:59.798Z,18.20
2023-02-19T08:09:26.410Z,18.20
2023-02-19T08:12:11.676Z,18.10
2023-02-19T08:14:38.293Z,18.20
2023-02-19T08:17:04.856Z,18.20
2023-02-19T08:19:31.458Z,18.10
2023-02-19T08:21:58.081Z,18.10
2023-02-19T08:24:24.629Z,18.20
2023-02-19T08:26:51.308Z,18.30
2023-02-19T08:29:17.940Z,18.60
2023-02-19T08:31:44.664Z,18.40
2023-02-19T08:34:11.366Z,18.60
2023-02-19T08:36:38.155Z,18.70
2023-02-19T08:39:04.774Z,18.80
2023-02-19T08:41:31.346Z,18.80
2023-02-19T08:43:57.919Z,19.00
2023-02-19T08:46:24.724Z,18.90
2023-02-19T08:48:52.510Z,18.90
2023-02-19T08:51:19.121Z,18.80
2023-02-19T08:53:45.940Z,18.70
2023-02-19T08:56:13.828Z,18.90
2023-02-19T08:58:40.744Z,18.60
2023-02-19T09:01:11.827Z,18.80
2023-02-19T09:03:38.695Z,18.60
2023-02-19T09:06:05.438Z,18.60
2023-02-19T09:08:32.070Z,18.50
2023-02-19T09:11:02.320Z,18.50
2023-02-19T09:13:29.242Z,18.60
2023-02-19T09:15:57.030Z,18.50
2023-02-19T09:18:24.337Z,18.50
2023-02-19T09:20:50.939Z,18.50
2023-02-19T09:23:17.546Z,18.50
2023-02-19T09:25:44.192Z,18.50
2023-02-19T09:28:10.803Z,18.50
2023-02-19T09:30:37.413Z,18.50
2023-02-19T09:33:05.161Z,18.40
2023-02-19T09:35:31.735Z,18.40
2023-02-19T09:37:59.516Z,18.30
2023-02-19T09:40:26.388Z,18.40
2023-02-19T09:42:52.995Z,18.40
2023-02-19T09:45:22.605Z,18.40
2023-02-19T09:47:49.768Z,18.40
2023-02-19T09:50:18.682Z,18.40
2023-02-19T09:52:51.207Z,18.50
2023-02-19T09:55:20.608Z,18.40
2023-02-19T09:57:48.260Z,18.40
2023-02-19T10:00:24.699Z,18.30
2023-02-19T10:02:52.648Z,18.40
2023-02-19T10:05:19.525Z,18.30
2023-02-19T10:07:47.931Z,18.30
2023-02-19T10:10:14.523Z,18.40
2023-02-19T10:12:45.682Z,18.30
2023-02-19T10:15:17.842Z,18.30
2023-02-19T10:17:44.498Z,18.30
2023-02-19T10:20:14.733Z,18.30
2023-02-19T10:22:41.308Z,18.30
2023-02-19T10:25:08.074Z,18.30
2023-02-19T10:27:34.635Z,18.40
2023-02-19T10:30:01.551Z,18.40
2023-02-19T10:32:29.455Z,18.30
2023-02-19T10:35:15.512Z,18.30
2023-02-19T10:37:44.351Z,18.40
2023-02-19T10:40:37.312Z,18.30
2023-02-19T10:43:04.818Z,18.30
2023-02-19T10:46:00.843Z,18.30
2023-02-19T10:48:36.167Z,18.30
2023-02-19T10:51:05.818Z,18.30
2023-02-19T10:53:58.836Z,18.20
2023-02-19T10:56:27.240Z,18.30
2023-02-19T10:58:53.906Z,18.30
2023-02-19T11:01:22.067Z,18.30
2023-02-19T11:03:52.389Z,18.50
2023-02-19T11:06:25.825Z,18.30
2023-02-19T11:08:57.535Z,18.30
2023-02-19T11:11:25.874Z,18.20
2023-02-19T11:13:53.472Z,18.20
2023-02-19T11:16:20.174Z,18.30
2023-02-19T11:18:54.829Z,18.20
2023-02-19T11:21:28.626Z,18.30
2023-02-19T11:23:55.709Z,18.30
2023-02-19T11:26:27.023Z,18.30
2023-02-19T11:28:57.776Z,18.30
2023-02-19T11:31:24.446Z,18.20
2023-02-19T11:33:53.811Z,18.20
2023-02-19T11:36:20.345Z,18.40
2023-02-19T11:38:46.955Z,18.50
2023-02-19T11:41:21.637Z,18.70
2023-02-19T11:44:11.407Z,18.80
2023-02-19T11:46:56.821Z,18.80
2023-02-19T11:49:49.343Z,18.80
2023-02-19T11:52:15.856Z,18.70
2023-02-19T11:54:54.564Z,18.70
2023-02-19T11:57:33.248Z,18.70
2023-02-19T12:00:13.058Z,18.60
2023-02-19T12:02:49.403Z,18.50
2023-02-19T12:05:19.164Z,18.60
2023-02-19T12:07:58.037Z,18.40
2023-02-19T12:10:24.575Z,18.50
2023-02-19T12:12:57.183Z,18.40
2023-02-19T12:15:31.944Z,18.40
2023-02-19T12:17:58.462Z,18.50
2023-02-19T12:20:37.295Z,18.40
2023-02-19T12:23:06.879Z,18.40
2023-02-19T12:25:45.695Z,18.40
2023-02-19T12:28:37.780Z,18.40
2023-02-19T12:31:23.268Z,18.40
2023-02-19T12:34:02.020Z,18.40
2023-02-19T12:36:38.126Z,18.40
2023-02-19T12:39:10.046Z,18.40
2023-02-19T12:41:43.072Z,18.70
2023-02-19T12:44:09.673Z,18.50
2023-02-19T12:46:38.220Z,18.60
2023-02-19T12:49:14.150Z,18.50
2023-02-19T12:51:55.014Z,18.50
2023-02-19T12:54:27.593Z,18.50
2023-02-19T12:57:14.124Z,18.50
2023-02-19T12:59:50.747Z,18.40
2023-02-19T13:02:17.371Z,18.40
2023-02-19T13:05:01.684Z,18.40
2023-02-19T13:07:33.367Z,18.40
2023-02-19T13:10:03.598Z,18.30
2023-02-19T13:12:32.851Z,18.30
2023-02-19T13:15:13.957Z,18.40
2023-02-19T13:17:56.920Z,18.30
2023-02-19T13:20:27.295Z,18.40
2023-02-19T13:23:18.675Z,18.40
2023-02-19T13:25:53.874Z,18.40
2023-02-19T13:28:25.741Z,18.30
2023-02-19T13:31:01.369Z,18.40
2023-02-19T13:33:39.541Z,18.40
2023-02-19T13:36:12.314Z,18.40
2023-02-19T13:38:40.770Z,18.40
2023-02-19T13:41:17.007Z,18.40
2023-02-19T13:43:46.776Z,18.40
2023-02-19T13:46:14.856Z,18.40
2023-02-19T13:48:43.263Z,18.30
2023-02-19T13:51:12.929Z,18.30
2023-02-19T13:53:45.767Z,18.30
2023-02-19T13:56:36.815Z,18.20
2023-02-19T13:59:12.222Z,18.50
2023-02-19T14:01:54.124Z,18.40
2023-02-19T14:04:22.048Z,18.40
2023-02-19T14:07:04.062Z,18.40
2023-02-19T14:09:45.987Z,18.40
2023-02-19T14:12:14.397Z,18.40
2023-02-19T14:14:43.439Z,18.20
2023-02-19T14:17:10.028Z,18.70
2023-02-19T14:19:39.533Z,18.40
2023-02-19T14:22:25.037Z,18.40
2023-02-19T14:24:53.512Z,18.40
2023-02-19T14:27:20.858Z,18.30
2023-02-19T14:29:48.172Z,18.40
2023-02-19T14:32:19.790Z,18.40
2023-02-19T14:34:46.578Z,18.30
2023-02-19T14:37:18.403Z,18.40
2023-02-19T14:39:45.327Z,18.30
2023-02-19T14:42:22.299Z,18.40
2023-02-19T14:44:51.322Z,18.40
2023-02-19T14:47:19.060Z,18.40
2023-02-19T14:49:51.780Z,18.40
2023-02-19T14:52:18.304Z,18.40
2023-02-19T14:54:45.184Z,18.40
2023-02-19T14:57:17.753Z,18.40
2023-02-19T14:59:54.974Z,18.40
2023-02-19T15:02:21.628Z,18.40
2023-02-19T15:04:49.596Z,18.40
2023-02-19T15:07:22.000Z,18.40
2023-02-19T15:09:51.974Z,18.50
2023-02-19T15:12:21.612Z,18.40
2023-02-19T15:14:49.965Z,18.30
2023-02-19T15:17:20.575Z,18.40
2023-02-19T15:19:47.141Z,18.40
2023-02-19T15:22:19.707Z,18.40
2023-02-19T15:24:48.496Z,18.30
2023-02-19T15:27:23.187Z,18.40
2023-02-19T15:29:53.338Z,18.30
2023-02-19T15:32:26.075Z,18.30
2023-02-19T15:34:55.500Z,18.30
2023-02-19T15:37:23.366Z,18.40
2023-02-19T15:39:51.194Z,18.30
2023-02-19T15:42:28.990Z,18.30
2023-02-19T15:45:14.497Z,18.30
2023-02-19T15:47:53.936Z,18.30
2023-02-19T15:50:31.022Z,18.20
2023-02-19T15:53:00.275Z,18.30
2023-02-19T15:55:26.826Z,18.30
2023-02-19T15:58:01.179Z,18.30
2023-02-19T16:00:48.406Z,18.30
2023-02-19T16:03:17.323Z,18.30
2023-02-19T16:05:44.014Z,18.30
2023-02-19T16:08:10.636Z,18.30
2023-02-19T16:10:37.767Z,18.30
2023-02-19T16:13:05.245Z,18.30
2023-02-19T16:15:33.121Z,18.30
2023-02-19T16:18:00.262Z,18.30
2023-02-19T16:20:31.135Z,18.30
2023-02-19T16:23:05.612Z,18.30
2023-02-19T16:25:38.179Z,18.20
2023-02-19T16:28:21.340Z,18.30
2023-02-19T16:30:55.438Z,18.30
2023-02-19T16:33:42.298Z,18.50
2023-02-19T16:36:21.193Z,18.30
2023-02-19T16:39:03.189Z,18.30
2023-02-19T16:41:29.789Z,18.30
2023-02-19T16:43:56.395Z,18.30
2023-02-19T16:46:23.317Z,18.30
2023-02-19T16:48:50.196Z,18.50
2023-02-19T16:51:34.907Z,18.30
2023-02-19T16:54:01.530Z,18.30
2023-02-19T16:56:28.155Z,18.30
2023-02-19T16:58:54.701Z,18.30
2023-02-19T17:01:21.300Z,18.30
2023-02-19T17:03:48.348Z,18.30
2023-02-19T17:06:15.506Z,18.30
2023-02-19T17:08:43.363Z,18.20
2023-02-19T17:11:14.354Z,18.20
2023-02-19T17:13:41.642Z,18.30
2023-02-19T17:16:10.749Z,18.30
2023-02-19T17:18:37.580Z,18.30
2023-02-19T17:21:17.954Z,18.20
2023-02-19T17:23:44.495Z,18.30
2023-02-19T17:26:14.958Z,18.30
2023-02-19T17:28:41.636Z,18.30
2023-02-19T17:31:09.178Z,18.30
2023-02-19T17:33:36.776Z,18.20
2023-02-19T17:36:03.673Z,18.30
2023-02-19T17:38:30.325Z,18.30
2023-02-19T17:40:57.037Z,18.20
2023-02-19T17:43:25.504Z,18.30
2023-02-19T17:45:52.239Z,18.20
2023-02-19T17:48:18.791Z,18.20
2023-02-19T17:50:45.329Z,18.20
2023-02-19T17:53:11.882Z,18.30
2023-02-19T17:55:38.460Z,18.20
2023-02-19T17:58:05.025Z,18.20
2023-02-19T18:00:32.200Z,18.30
2023-02-19T18:02:58.762Z,18.30
2023-02-19T18:05:25.331Z,18.20
2023-02-19T18:07:51.918Z,18.20
2023-02-19T18:10:19.680Z,18.20
2023-02-19T18:12:46.325Z,18.20
2023-02-19T18:15:20.507Z,18.20
2023-02-19T18:17:47.199Z,18.20
2023-02-19T18:20:18.763Z,18.20
2023-02-19T18:22:45.316Z,18.20
2023-02-19T18:25:12.178Z,18.20
2023-02-19T18:27:38.982Z,18.20
2023-02-19T18:30:05.898Z,18.20
2023-02-19T18:32:32.767Z,18.20
2023-02-19T18:35:00.159Z,18.20
2023-02-19T18:37:27.419Z,18.30
2023-02-19T18:39:53.992Z,18.20
2023-02-19T18:42:21.491Z,18.20
2023-02-19T18:44:48.409Z,18.20
2023-02-19T18:47:15.905Z,18.40
2023-02-19T18:49:46.756Z,18.20
2023-02-19T18:52:13.518Z,18.20
2023-02-19T18:54:40.096Z,18.20
2023-02-19T18:57:07.356Z,18.30
2023-02-19T18:59:34.127Z,18.20
2023-02-19T19:02:00.896Z,18.30
2023-02-19T19:04:27.572Z,18.20
2023-02-19T19:06:54.138Z,18.20
2023-02-19T19:09:20.728Z,18.20
2023-02-19T19:11:47.292Z,18.20
2023-02-19T19:14:13.840Z,18.20
2023-02-19T19:16:40.813Z,18.20
2023-02-19T19:19:07.486Z,18.20
2023-02-19T19:21:34.050Z,18.10
2023-02-19T19:24:00.626Z,18.20
2023-02-19T19:26:27.352Z,18.20
2023-02-19T19:28:53.987Z,18.20
2023-02-19T19:31:20.992Z,18.20
2023-02-19T19:33:48.220Z,18.20
2023-02-19T19:36:18.341Z,18.20
2023-02-19T19:38:45.520Z,18.20
2023-02-19T19:41:14.204Z,18.20
2023-02-19T19:43:40.827Z,18.20
2023-02-19T19:46:08.674Z,18.20
2023-02-19T19:48:35.285Z,18.40
2023-02-19T19:51:01.842Z,18.20
2023-02-19T19:53:28.396Z,18.20
2023-02-19T19:55:55.027Z,18.20
2023-02-19T19:58:24.605Z,18.20
2023-02-19T20:00:51.696Z,18.30
2023-02-19T20:03:18.802Z,18.10
2023-02-19T20:05:50.588Z,18.20
2023-02-19T20:08:17.634Z,18.20
2023-02-19T20:10:45.459Z,18.10
2023-02-19T20:13:15.304Z,18.20
2023-02-19T20:15:41.886Z,18.20
2023-02-19T20:18:08.467Z,18.20
2023-02-19T20:20:35.134Z,18.20
2023-02-19T20:23:01.710Z,18.20
2023-02-19T20:25:28.382Z,18.20
2023-02-19T20:27:54.938Z,18.10
2023-02-19T20:30:22.510Z,18.20
2023-02-19T20:32:49.134Z,18.20
2023-02-19T20:35:17.152Z,18.20
2023-02-19T20:37:44.123Z,18.20
2023-02-19T20:40:11.452Z,18.20
2023-02-19T20:42:38.138Z,18.20
2023-02-19T20:45:05.355Z,18.30
2023-02-19T20:47:31.945Z,18.30
2023-02-19T20:49:58.584Z,18.20
2023-02-19T20:52:25.257Z,18.20
2023-02-19T20:54:55.764Z,18.30
2023-02-19T20:57:22.626Z,18.30
2023-02-19T20:59:49.214Z,18.20
2023-02-19T21:02:24.484Z,18.20
2023-02-19T21:04:51.423Z,18.20
2023-02-19T21:07:18.089Z,18.20
2023-02-19T21:09:44.676Z,18.30
2023-02-19T21:12:11.878Z,18.30
2023-02-19T21:14:39.798Z,18.20
2023-02-19T21:17:06.458Z,18.30
2023-02-19T21:19:33.036Z,18.20
2023-02-19T21:21:59.575Z,18.20
2023-02-19T21:24:26.160Z,18.20
2023-02-19T21:26:52.707Z,18.20
2023-02-19T21:29:20.539Z,18.20
2023-02-19T21:31:48.549Z,18.20
2023-02-19T21:34:16.586Z,18.20
2023-02-19T21:36:43.274Z,18.10
2023-02-19T21:39:11.545Z,18.20
2023-02-19T21:41:38.089Z,18.20
2023-02-19T21:44:04.908Z,18.20
2023-02-19T21:46:33.185Z,18.20
2023-02-19T21:48:59.854Z,18.20
2023-02-19T21:51:33.221Z,18.20
2023-02-19T21:54:00.190Z,18.10
2023-02-19T21:56:31.131Z,18.20
2023-02-19T21:58:58.160Z,18.20
2023-02-19T22:01:24.699Z,18.10
2023-02-19T22:03:51.271Z,18.10
2023-02-19T22:06:18.288Z,18.10
2023-02-19T22:08:45.471Z,18.00
2023-02-19T22:11:12.130Z,18.20
2023-02-19T22:13:39.554Z,18.10
2023-02-19T22:16:06.268Z,18.10
2023-02-19T22:18:32.924Z,18.10
2023-02-19T22:20:59.470Z,18.10
2023-02-19T22:23:26.039Z,18.20
2023-02-19T22:25:52.592Z,18.30
2023-02-19T22:28:19.145Z,18.10
2023-02-19T22:30:46.347Z,18.10
2023-02-19T22:33:12.902Z,18.10
2023-02-19T22:35:39.490Z,18.20
2023-02-19T22:38:06.102Z,18.10
2023-02-19T22:40:32.647Z,18.20
2023-02-19T22:42:59.213Z,18.10
2023-02-19T22:45:26.187Z,18.20
2023-02-19T22:47:56.219Z,18.10
2023-02-19T22:50:23.081Z,18.10
2023-02-19T22:52:50.137Z,18.10
2023-02-19T22:55:17.121Z,18.10
2023-02-19T22:57:43.725Z,18.10
2023-02-19T23:00:16.037Z,18.10
2023-02-19T23:02:42.589Z,18.20
2023-02-19T23:05:09.248Z,18.10
2023-02-19T23:07:35.787Z,18.10
2023-02-19T23:10:02.360Z,18.10
2023-02-19T23:12:29.018Z,18.20
2023-02-19T23:14:57.439Z,18.10
2023-02-19T23:17:23.979Z,18.10
2023-02-19T23:19:50.552Z,18.40
2023-02-19T23:22:17.263Z,18.10
2023-02-19T23:24:43.830Z,18.00
2023-02-19T23:27:10.387Z,18.10
2023-02-19T23:29:36.943Z,18.20
2023-02-19T23:32:03.568Z,18.00
2023-02-19T23:34:30.177Z,18.10
2023-02-19T23:36:59.366Z,18.20
2023-02-19T23:39:26.201Z,18.10
2023-02-19T23:41:53.900Z,18.10
2023-02-19T23:44:21.185Z,18.10
2023-02-19T23:46:48.034Z,18.10
2023-02-19T23:49:14.632Z,18.10
2023-02-19T23:51:41.223Z,18.10
2023-02-19T23:54:07.833Z,18.10
2023-02-19T23:56:34.725Z,18.00
2023-02-19T23:59:01.385Z,18.00
